createdAt,value
2019-05-06T00:00:59.398Z,0.00
2019-05-06T00:01:53.757Z,0.00
2019-05-06T00:02:54.232Z,0.00
2019-05-06T00:03:54.177Z,0.00
2019-05-06T00:04:54.190Z,0.00
2019-05-06T00:05:54.226Z,0.00
2019-05-06T00:07:17.342Z,0.00
2019-05-06T00:07:54.417Z,0.00
2019-05-06T00:08:54.558Z,0.00
2019-05-06T00:09:53.899Z,0.00
2019-05-06T00:10:54.231Z,0.00
2019-05-06T00:11:54.414Z,0.00
2019-05-06T00:12:56.345Z,0.00
2019-05-06T00:13:54.364Z,0.00
2019-05-06T00:14:54.186Z,0.00
2019-05-06T00:17:25.087Z,0.00
2019-05-06T00:18:50.081Z,0.00
2019-05-06T00:19:25.081Z,0.00
2019-05-06T00:20:50.017Z,0.00
2019-05-06T00:21:25.586Z,0.00
2019-05-06T00:22:46.586Z,0.00
2019-05-06T00:23:25.576Z,0.00
2019-05-06T00:24:50.082Z,0.00
2019-05-06T00:25:47.080Z,0.00
2019-05-06T00:26:26.080Z,0.00
2019-05-06T00:27:27.014Z,0.00
2019-05-06T00:28:47.588Z,0.00
2019-05-06T00:29:29.080Z,0.00
2019-05-06T00:31:58.084Z,0.00
2019-05-06T00:32:58.071Z,0.00
2019-05-06T00:33:58.071Z,0.00
2019-05-06T00:35:02.070Z,0.00
2019-05-06T00:36:00.472Z,0.00
2019-05-06T00:36:58.578Z,0.00
2019-05-06T00:37:58.571Z,0.00
2019-05-06T00:38:59.071Z,0.00
2019-05-06T00:40:04.668Z,0.00
2019-05-06T00:40:59.076Z,0.00
2019-05-06T00:41:59.073Z,0.00
2019-05-06T00:42:59.570Z,0.00
2019-05-06T00:43:59.573Z,0.00
2019-05-06T00:45:00.505Z,0.00
2019-05-06T00:46:04.701Z,0.00
2019-05-06T00:47:04.199Z,0.00
2019-05-06T00:48:00.077Z,0.00
2019-05-06T00:49:00.072Z,0.00
2019-05-06T00:50:00.068Z,0.00
2019-05-06T00:51:04.624Z,0.00
2019-05-06T00:52:00.581Z,0.00
2019-05-06T00:53:00.569Z,0.00
2019-05-06T00:54:00.574Z,0.00
2019-05-06T00:55:01.069Z,0.00
2019-05-06T00:56:04.603Z,0.00
2019-05-06T00:57:01.069Z,0.00
2019-05-06T00:58:01.070Z,0.00
2019-05-06T00:59:23.827Z,0.00
2019-05-06T01:00:24.394Z,0.00
2019-05-06T01:02:36.890Z,0.00
2019-05-06T01:03:57.897Z,0.00
2019-05-06T01:04:36.918Z,0.00
2019-05-06T01:05:38.361Z,0.00
2019-05-06T01:06:43.877Z,0.00
2019-05-06T01:07:37.397Z,0.00
2019-05-06T01:08:37.403Z,0.00
2019-05-06T01:09:37.898Z,0.00
2019-05-06T01:10:38.850Z,0.00
2019-05-06T01:11:41.404Z,0.00
2019-05-06T01:12:37.895Z,0.00
2019-05-06T01:13:37.897Z,0.00
2019-05-06T01:14:59.391Z,0.00
2019-05-06T01:15:59.399Z,0.00
2019-05-06T01:16:43.975Z,0.00
2019-05-06T01:17:38.396Z,0.00
2019-05-06T01:18:38.896Z,0.00
2019-05-06T01:19:38.905Z,0.00
2019-05-06T01:20:38.898Z,0.00
2019-05-06T01:21:38.900Z,0.00
2019-05-06T01:22:43.666Z,0.00
2019-05-06T01:23:39.397Z,0.00
2019-05-06T01:24:39.432Z,0.00
2019-05-06T01:25:39.399Z,0.00
2019-05-06T01:27:00.897Z,0.00
2019-05-06T01:27:44.415Z,0.00
2019-05-06T01:28:39.897Z,0.00
2019-05-06T01:29:39.896Z,0.00
2019-05-06T01:30:41.829Z,0.00
2019-05-06T01:31:43.217Z,0.00
2019-05-06T01:32:40.396Z,0.00
2019-05-06T01:33:45.263Z,0.00
2019-05-06T01:36:14.103Z,0.00
2019-05-06T01:37:14.146Z,0.00
2019-05-06T01:38:12.147Z,0.00
2019-05-06T01:39:38.090Z,0.00
2019-05-06T01:40:14.330Z,0.00
2019-05-06T01:41:13.727Z,0.00
2019-05-06T01:42:14.079Z,0.00
2019-05-06T01:43:14.536Z,0.00
2019-05-06T01:44:16.143Z,0.00
2019-05-06T01:45:14.155Z,0.00
2019-05-06T01:46:14.010Z,0.00
2019-05-06T01:47:14.542Z,0.00
2019-05-06T01:48:14.338Z,0.00
2019-05-06T01:49:13.861Z,0.00
2019-05-06T01:50:17.635Z,0.00
2019-05-06T01:51:14.318Z,0.00
2019-05-06T01:52:14.670Z,0.00
2019-05-06T01:53:16.569Z,0.00
2019-05-06T01:54:14.353Z,0.00
2019-05-06T01:55:14.301Z,0.00
2019-05-06T01:56:18.636Z,0.00
2019-05-06T01:57:36.569Z,0.00
2019-05-06T01:58:14.643Z,0.00
2019-05-06T01:59:14.633Z,0.00
2019-05-06T02:00:14.633Z,0.00
2019-05-06T02:01:39.655Z,0.00
2019-05-06T02:03:46.499Z,0.00
2019-05-06T02:04:46.506Z,0.00
2019-05-06T02:05:46.505Z,0.00
2019-05-06T02:06:50.013Z,0.00
2019-05-06T02:07:47.005Z,0.00
2019-05-06T02:08:47.004Z,0.00
2019-05-06T02:09:47.005Z,0.00
2019-05-06T02:10:54.939Z,0.00
2019-05-06T02:11:53.502Z,0.00
2019-05-06T02:12:47.510Z,0.00
2019-05-06T02:13:47.506Z,0.00
2019-05-06T02:14:48.004Z,0.00
2019-05-06T02:15:48.009Z,0.00
2019-05-06T02:16:48.013Z,0.00
2019-05-06T02:17:50.504Z,0.00
2019-05-06T02:20:40.780Z,0.00
2019-05-06T02:21:19.743Z,0.00
2019-05-06T02:22:19.743Z,0.00
2019-05-06T02:23:24.220Z,0.00
2019-05-06T02:24:20.242Z,0.00
2019-05-06T02:25:20.242Z,0.00
2019-05-06T02:26:20.243Z,0.00
2019-05-06T02:27:21.698Z,0.00
2019-05-06T02:28:51.244Z,0.00
2019-05-06T02:29:20.744Z,0.00
2019-05-06T02:30:20.786Z,0.00
2019-05-06T02:31:20.743Z,0.00
2019-05-06T02:32:30.236Z,0.00
2019-05-06T02:33:21.242Z,0.00
2019-05-06T02:34:46.343Z,0.00
2019-05-06T02:35:21.245Z,0.00
2019-05-06T02:36:21.750Z,0.00
2019-05-06T02:37:21.744Z,0.00
2019-05-06T02:38:23.370Z,0.00
2019-05-06T02:39:26.242Z,0.00
2019-05-06T02:40:25.005Z,0.00
2019-05-06T02:41:23.276Z,0.00
2019-05-06T02:42:23.903Z,0.00
2019-05-06T02:43:23.247Z,0.00
2019-05-06T02:44:26.316Z,0.00
2019-05-06T02:45:43.741Z,0.00
2019-05-06T02:46:23.820Z,0.00
2019-05-06T02:47:23.136Z,0.00
2019-05-06T02:48:22.988Z,0.00
2019-05-06T02:49:47.741Z,0.00
2019-05-06T02:50:23.920Z,0.00
2019-05-06T02:51:24.375Z,0.00
2019-05-06T02:52:23.242Z,0.00
2019-05-06T02:53:46.794Z,0.00
2019-05-06T02:54:23.781Z,0.00
2019-05-06T02:55:27.750Z,0.00
2019-05-06T02:56:24.127Z,0.00
2019-05-06T02:57:24.123Z,0.00
2019-05-06T02:58:24.250Z,0.00
2019-05-06T02:59:24.284Z,0.00
2019-05-06T03:00:24.240Z,0.00
2019-05-06T03:01:27.739Z,0.00
2019-05-06T03:02:38.922Z,0.00
2019-05-06T03:03:24.736Z,0.00
2019-05-06T03:04:24.741Z,0.00
2019-05-06T03:05:24.749Z,0.00
2019-05-06T03:06:28.749Z,0.00
2019-05-06T03:07:25.241Z,0.00
2019-05-06T03:08:48.239Z,0.00
2019-05-06T03:09:25.247Z,0.00
2019-05-06T03:10:46.738Z,0.00
2019-05-06T03:11:25.739Z,0.00
2019-05-06T03:12:53.490Z,0.00
2019-05-06T03:13:25.739Z,0.00
2019-05-06T03:14:26.245Z,0.00
2019-05-06T03:15:26.237Z,0.00
2019-05-06T03:16:47.239Z,0.00
2019-05-06T03:17:26.238Z,0.00
2019-05-06T03:18:32.527Z,4.00
2019-05-06T03:19:26.738Z,4.00
2019-05-06T03:20:26.747Z,0.00
2019-05-06T03:21:26.741Z,0.00
2019-05-06T03:22:48.246Z,4.00
2019-05-06T03:23:34.459Z,4.00
2019-05-06T03:24:27.240Z,0.00
2019-05-06T03:25:27.251Z,4.00
2019-05-06T03:26:48.744Z,4.00
2019-05-06T03:27:27.741Z,4.00
2019-05-06T03:28:27.770Z,8.00
2019-05-06T03:29:33.377Z,4.00
2019-05-06T03:30:28.237Z,4.00
2019-05-06T03:31:28.253Z,8.00
2019-05-06T03:32:30.641Z,8.00
2019-05-06T03:33:46.594Z,12.00
2019-05-06T03:34:52.870Z,12.00
2019-05-06T03:35:48.399Z,16.00
2019-05-06T03:36:34.469Z,16.00
2019-05-06T03:37:28.738Z,20.00
2019-05-06T03:38:53.666Z,24.00
2019-05-06T03:39:33.592Z,28.00
2019-05-06T03:40:36.476Z,32.00
2019-05-06T03:41:29.235Z,36.00
2019-05-06T03:42:29.238Z,36.00
2019-05-06T03:43:29.739Z,44.00
2019-05-06T03:44:53.258Z,48.00
2019-05-06T03:45:33.515Z,52.00
2019-05-06T03:46:54.733Z,60.00
2019-05-06T03:47:30.236Z,64.00
2019-05-06T03:48:53.092Z,68.00
2019-05-06T03:49:33.631Z,76.00
2019-05-06T03:50:33.489Z,80.00
2019-05-06T03:51:33.487Z,84.00
2019-05-06T03:52:34.310Z,88.00
2019-05-06T03:53:33.374Z,96.00
2019-05-06T03:54:34.006Z,96.00
2019-05-06T03:55:33.950Z,104.00
2019-05-06T03:56:33.806Z,104.00
2019-05-06T03:57:36.234Z,112.00
2019-05-06T03:58:34.425Z,116.00
2019-05-06T03:59:33.513Z,120.00
2019-05-06T04:00:33.339Z,128.00
2019-05-06T04:01:33.629Z,132.00
2019-05-06T04:02:33.662Z,140.00
2019-05-06T04:03:46.761Z,144.00
2019-05-06T04:04:33.229Z,156.00
2019-05-06T04:05:33.431Z,168.00
2019-05-06T04:06:33.323Z,180.00
2019-05-06T04:07:34.011Z,192.00
2019-05-06T04:08:36.235Z,200.00
2019-05-06T04:09:33.513Z,212.00
2019-05-06T04:10:33.770Z,224.00
2019-05-06T04:11:35.839Z,232.00
2019-05-06T04:12:33.407Z,240.00
2019-05-06T04:13:33.432Z,252.00
2019-05-06T04:14:37.241Z,264.00
2019-05-06T04:15:34.267Z,280.00
2019-05-06T04:16:33.881Z,288.00
2019-05-06T04:17:33.733Z,300.00
2019-05-06T04:18:33.742Z,312.00
2019-05-06T04:19:34.232Z,324.00
2019-05-06T04:20:36.237Z,344.00
2019-05-06T04:21:34.235Z,360.00
2019-05-06T04:22:34.231Z,384.00
2019-05-06T04:23:34.733Z,408.00
2019-05-06T04:24:34.730Z,436.00
2019-05-06T04:25:38.233Z,464.00
2019-05-06T04:26:34.732Z,492.00
2019-05-06T04:27:35.233Z,512.00
2019-05-06T04:30:27.588Z,556.00
2019-05-06T04:31:13.145Z,576.00
2019-05-06T04:32:06.597Z,596.00
2019-05-06T04:33:28.104Z,616.00
2019-05-06T04:34:13.919Z,636.00
2019-05-06T04:35:07.095Z,660.00
2019-05-06T04:36:13.147Z,684.00
2019-05-06T04:37:07.596Z,708.00
2019-05-06T04:38:07.591Z,716.00
2019-05-06T04:39:07.602Z,736.00
2019-05-06T04:40:07.597Z,752.00
2019-05-06T04:41:13.644Z,768.00
2019-05-06T04:43:39.460Z,836.00
2019-05-06T04:44:39.459Z,844.00
2019-05-06T04:45:39.531Z,836.00
2019-05-06T04:46:44.305Z,840.00
2019-05-06T04:48:03.472Z,848.00
2019-05-06T04:48:39.958Z,860.00
2019-05-06T04:49:39.961Z,892.00
2019-05-06T04:52:36.690Z,844.00
2019-05-06T04:53:13.646Z,852.00
2019-05-06T04:54:13.481Z,872.00
2019-05-06T04:55:33.714Z,904.00
2019-05-06T04:56:14.379Z,996.00
2019-05-06T04:57:12.852Z,1040.00
2019-05-06T04:58:36.697Z,1040.00
2019-05-06T04:59:13.837Z,1040.00
2019-05-06T05:03:22.516Z,1236.00
2019-05-06T05:04:28.350Z,1188.00
2019-05-06T05:05:15.821Z,1088.00
2019-05-06T05:06:37.321Z,1088.00
2019-05-06T05:07:16.320Z,1104.00
2019-05-06T05:08:16.339Z,1096.00
2019-05-06T05:09:19.819Z,1080.00
2019-05-06T05:10:16.824Z,1068.00
2019-05-06T05:11:16.820Z,1116.00
2019-05-06T05:12:37.819Z,1128.00
2019-05-06T05:13:16.826Z,1128.00
2019-05-06T05:14:25.340Z,1132.00
2019-05-06T05:15:17.318Z,1136.00
2019-05-06T05:16:17.318Z,1144.00
2019-05-06T05:17:17.318Z,1160.00
2019-05-06T05:18:17.819Z,1164.00
2019-05-06T05:19:18.752Z,1176.00
2019-05-06T05:20:36.436Z,1204.00
2019-05-06T05:21:17.858Z,1224.00
2019-05-06T05:22:39.318Z,1236.00
2019-05-06T05:23:18.320Z,1256.00
2019-05-06T05:24:19.756Z,1268.00
2019-05-06T05:25:18.321Z,1268.00
2019-05-06T05:26:22.821Z,1252.00
2019-05-06T05:27:18.817Z,1116.00
2019-05-06T05:28:42.797Z,1124.00
2019-05-06T05:29:18.818Z,1220.00
2019-05-06T05:30:42.778Z,1208.00
2019-05-06T05:31:22.884Z,1280.00
2019-05-06T05:32:22.828Z,1300.00
2019-05-06T05:33:19.320Z,1324.00
2019-05-06T05:34:22.420Z,1164.00
2019-05-06T05:35:19.818Z,1144.00
2019-05-06T05:36:19.817Z,1140.00
2019-05-06T05:37:19.817Z,1144.00
2019-05-06T05:38:23.817Z,1152.00
2019-05-06T05:39:22.276Z,1168.00
2019-05-06T05:40:22.447Z,1188.00
2019-05-06T05:41:20.318Z,1228.00
2019-05-06T05:42:42.400Z,1236.00
2019-05-06T05:43:45.316Z,1300.00
2019-05-06T05:44:22.656Z,1280.00
2019-05-06T05:45:22.163Z,1288.00
2019-05-06T05:46:43.711Z,1316.00
2019-05-06T05:47:22.105Z,1336.00
2019-05-06T05:48:23.250Z,1372.00
2019-05-06T05:49:45.818Z,1384.00
2019-05-06T05:50:22.842Z,1356.00
2019-05-06T05:51:22.237Z,1360.00
2019-05-06T05:52:22.244Z,1392.00
2019-05-06T05:53:22.521Z,1340.00
2019-05-06T05:54:23.181Z,1352.00
2019-05-06T05:55:47.324Z,1364.00
2019-05-06T05:56:23.947Z,1388.00
2019-05-06T05:57:22.629Z,1392.00
2019-05-06T05:58:24.875Z,1528.00
2019-05-06T05:59:23.256Z,1424.00
2019-05-06T06:00:22.824Z,1328.00
2019-05-06T06:01:46.815Z,1296.00
2019-05-06T06:02:22.818Z,1444.00
2019-05-06T06:04:57.668Z,1488.00
2019-05-06T06:07:32.798Z,1752.00
2019-05-06T06:08:26.051Z,1692.00
2019-05-06T06:09:27.483Z,1608.00
2019-05-06T06:10:47.550Z,1748.00
2019-05-06T06:13:02.174Z,1760.00
2019-05-06T06:15:29.395Z,1568.00
2019-05-06T06:16:29.402Z,1656.00
2019-05-06T06:17:29.403Z,1792.00
2019-05-06T06:18:33.478Z,1832.00
2019-05-06T06:19:53.285Z,1872.00
2019-05-06T06:20:29.945Z,1880.00
2019-05-06T06:21:32.019Z,1852.00
2019-05-06T06:22:30.419Z,1872.00
2019-05-06T06:25:05.214Z,2260.00
2019-05-06T06:26:26.218Z,2240.00
2019-05-06T06:27:05.218Z,2192.00
2019-05-06T06:28:28.720Z,2216.00
2019-05-06T06:30:42.392Z,2416.00
2019-05-06T06:31:42.778Z,2064.00
2019-05-06T06:33:02.592Z,1900.00
2019-05-06T06:33:42.751Z,1876.00
2019-05-06T06:34:44.567Z,1768.00
2019-05-06T06:35:42.606Z,1700.00
2019-05-06T06:36:41.906Z,1812.00
2019-05-06T06:37:42.611Z,1876.00
2019-05-06T06:38:42.948Z,1948.00
2019-05-06T06:39:46.069Z,1856.00
2019-05-06T06:40:42.563Z,1760.00
2019-05-06T06:41:42.569Z,1908.00
2019-05-06T06:42:44.568Z,2112.00
2019-05-06T06:43:42.572Z,2144.00
2019-05-06T06:44:42.569Z,2240.00
2019-05-06T06:46:09.537Z,2496.00
2019-05-06T06:46:43.067Z,2684.00
2019-05-06T06:47:43.068Z,2856.00
2019-05-06T06:48:43.138Z,3084.00
2019-05-06T06:49:43.568Z,3360.00
2019-05-06T06:50:47.067Z,3668.00
2019-05-06T06:52:10.948Z,3660.00
2019-05-06T06:52:43.568Z,3796.00
2019-05-06T06:54:05.067Z,3980.00
2019-05-06T06:55:05.072Z,4112.00
2019-05-06T06:56:08.067Z,4020.00
2019-05-06T06:56:44.079Z,3676.00
2019-05-06T06:57:44.568Z,3500.00
2019-05-06T06:58:44.567Z,3636.00
2019-05-06T06:59:44.568Z,4044.00
2019-05-06T07:00:48.567Z,4504.00
2019-05-06T07:02:07.510Z,4896.00
2019-05-06T07:02:44.281Z,4960.00
2019-05-06T07:05:37.521Z,4144.00
2019-05-06T07:06:22.342Z,3640.00
2019-05-06T07:07:16.528Z,3216.00
2019-05-06T07:08:38.061Z,3024.00
2019-05-06T07:09:38.020Z,3028.00
2019-05-06T07:10:19.454Z,3176.00
2019-05-06T07:11:26.518Z,3260.00
2019-05-06T07:13:48.762Z,3668.00
2019-05-06T07:14:48.767Z,3356.00
2019-05-06T07:15:48.768Z,3552.00
2019-05-06T07:16:53.332Z,3784.00
2019-05-06T07:19:42.265Z,3744.00
2019-05-06T07:20:22.859Z,3644.00
2019-05-06T07:21:22.507Z,3712.00
2019-05-06T07:25:27.598Z,4520.00
2019-05-06T07:26:27.605Z,4840.00
2019-05-06T07:27:32.405Z,5172.00
2019-05-06T07:28:53.040Z,5224.00
2019-05-06T07:29:28.104Z,5168.00
2019-05-06T07:30:28.105Z,5872.00
2019-05-06T07:31:28.114Z,5376.00
2019-05-06T07:32:28.605Z,5268.00
2019-05-06T07:33:33.553Z,5356.00
2019-05-06T07:34:32.099Z,5304.00
2019-05-06T07:35:38.488Z,5368.00
2019-05-06T07:36:49.638Z,5452.00
2019-05-06T07:37:29.106Z,5468.00
2019-05-06T07:38:33.107Z,5568.00
2019-05-06T07:39:52.684Z,5540.00
2019-05-06T07:40:29.105Z,5452.00
2019-05-06T07:41:53.289Z,5340.00
2019-05-06T07:45:35.854Z,5108.00
2019-05-06T07:46:35.851Z,5068.00
2019-05-06T07:47:35.871Z,4916.00
2019-05-06T07:48:36.356Z,4800.00
2019-05-06T07:50:02.461Z,4788.00
2019-05-06T07:50:36.353Z,4820.00
2019-05-06T07:51:36.358Z,4716.00
2019-05-06T07:54:08.298Z,4204.00
2019-05-06T07:55:12.077Z,4128.00
2019-05-06T07:56:08.096Z,4176.00
2019-05-06T07:58:39.840Z,3952.00
2019-05-06T07:59:39.840Z,3948.00
2019-05-06T08:00:43.342Z,4072.00
2019-05-06T08:01:40.343Z,4404.00
2019-05-06T08:02:42.490Z,4852.00
2019-05-06T08:03:42.697Z,5212.00
2019-05-06T08:04:42.048Z,5380.00
2019-05-06T08:05:54.668Z,5712.00
2019-05-06T08:06:42.672Z,5340.00
2019-05-06T08:07:42.284Z,5372.00
2019-05-06T08:08:43.027Z,5372.00
2019-05-06T08:11:16.042Z,7076.00
2019-05-06T08:12:13.052Z,6184.00
2019-05-06T08:13:13.185Z,6396.00
2019-05-06T08:14:13.358Z,6200.00
2019-05-06T08:15:13.551Z,6416.00
2019-05-06T08:16:17.051Z,6300.00
2019-05-06T08:17:34.551Z,7336.00
2019-05-06T08:18:13.552Z,5980.00
2019-05-06T08:19:35.051Z,5664.00
2019-05-06T08:20:35.051Z,5324.00
2019-05-06T08:21:38.551Z,5604.00
2019-05-06T08:22:14.051Z,6000.00
2019-05-06T08:23:14.551Z,7476.00
2019-05-06T08:24:14.551Z,6940.00
2019-05-06T08:25:14.557Z,6172.00
2019-05-06T08:26:18.551Z,6016.00
2019-05-06T08:30:38.782Z,3324.00
2019-05-06T08:31:23.201Z,2848.00
2019-05-06T08:32:17.726Z,2540.00
2019-05-06T08:33:17.321Z,2416.00
2019-05-06T08:34:18.218Z,2404.00
2019-05-06T08:35:42.357Z,2416.00
2019-05-06T08:36:18.218Z,2352.00
2019-05-06T08:37:44.717Z,2144.00
2019-05-06T08:38:17.814Z,1964.00
2019-05-06T08:39:22.018Z,1940.00
2019-05-06T08:40:18.718Z,2084.00
2019-05-06T08:41:18.717Z,2300.00
2019-05-06T08:42:22.718Z,2608.00
2019-05-06T08:43:19.219Z,2892.00
2019-05-06T08:44:42.570Z,3156.00
2019-05-06T08:45:19.217Z,3308.00
2019-05-06T08:46:19.217Z,3388.00
2019-05-06T08:47:22.362Z,3428.00
2019-05-06T08:48:23.716Z,3448.00
2019-05-06T08:49:19.731Z,3468.00
2019-05-06T08:51:53.038Z,3852.00
2019-05-06T08:52:52.306Z,4056.00
2019-05-06T08:54:16.724Z,4284.00
2019-05-06T08:54:52.679Z,4480.00
2019-05-06T08:55:52.886Z,4720.00
2019-05-06T08:56:52.290Z,4856.00
2019-05-06T08:57:53.202Z,4980.00
2019-05-06T08:58:52.952Z,5096.00
2019-05-06T09:00:09.729Z,4952.00
2019-05-06T09:00:53.763Z,4492.00
2019-05-06T09:01:53.371Z,3880.00
2019-05-06T09:02:53.093Z,3352.00
2019-05-06T09:04:16.320Z,2888.00
2019-05-06T09:04:56.719Z,2552.00
2019-05-06T09:05:53.067Z,2312.00
2019-05-06T09:07:13.278Z,2096.00
2019-05-06T09:07:54.685Z,1932.00
2019-05-06T09:09:14.209Z,1816.00
2019-05-06T09:09:53.214Z,1732.00
2019-05-06T09:10:56.713Z,1668.00
2019-05-06T09:12:14.711Z,1608.00
2019-05-06T09:12:53.709Z,1532.00
2019-05-06T09:14:14.709Z,1524.00
2019-05-06T09:14:53.709Z,1612.00
2019-05-06T09:15:57.703Z,1816.00
2019-05-06T09:16:54.326Z,2136.00
2019-05-06T09:17:54.210Z,2556.00
2019-05-06T09:18:54.209Z,3052.00
2019-05-06T09:21:29.446Z,4368.00
2019-05-06T09:22:46.957Z,4636.00
2019-05-06T09:23:46.951Z,4908.00
2019-05-06T09:24:26.451Z,5192.00
2019-05-06T09:25:26.451Z,5488.00
2019-05-06T09:26:32.384Z,5600.00
2019-05-06T09:27:26.462Z,5500.00
2019-05-06T09:28:26.953Z,5576.00
2019-05-06T09:29:26.951Z,5828.00
2019-05-06T09:30:26.964Z,5840.00
2019-05-06T09:31:26.960Z,6120.00
2019-05-06T09:32:52.892Z,6616.00
2019-05-06T09:33:27.451Z,6784.00
2019-05-06T09:34:27.454Z,6952.00
2019-05-06T09:35:27.448Z,7024.00
2019-05-06T09:36:39.947Z,7028.00
2019-05-06T09:37:32.495Z,6780.00
2019-05-06T09:38:28.885Z,6780.00
2019-05-06T09:39:29.438Z,6980.00
2019-05-06T09:40:27.952Z,7444.00
2019-05-06T09:41:27.986Z,9500.00
2019-05-06T09:42:53.885Z,9376.00
2019-05-06T09:43:29.907Z,8972.00
2019-05-06T09:44:28.451Z,6868.00
2019-05-06T09:45:28.453Z,6264.00
2019-05-06T09:46:28.450Z,6436.00
2019-05-06T09:47:53.452Z,6456.00
2019-05-06T09:48:28.953Z,7460.00
2019-05-06T09:49:34.952Z,6688.00
2019-05-06T09:50:31.875Z,6272.00
2019-05-06T09:53:06.092Z,6004.00
2019-05-06T09:54:04.073Z,6148.00
2019-05-06T09:55:03.239Z,6412.00
2019-05-06T09:56:24.169Z,6684.00
2019-05-06T09:57:22.219Z,6836.00
2019-05-06T09:58:26.157Z,6832.00
2019-05-06T09:59:22.158Z,6896.00
2019-05-06T10:00:23.584Z,6944.00
2019-05-06T10:02:33.025Z,7948.00
2019-05-06T10:03:36.536Z,8504.00
2019-05-06T10:04:33.032Z,8992.00
2019-05-06T10:07:27.770Z,9132.00
2019-05-06T10:08:25.781Z,8904.00
2019-05-06T10:09:15.242Z,8760.00
2019-05-06T10:10:26.278Z,8776.00
2019-05-06T10:11:11.213Z,8368.00
2019-05-06T10:12:26.276Z,9712.00
2019-05-06T10:13:05.276Z,8288.00
2019-05-06T10:15:42.631Z,8384.00
2019-05-06T10:16:43.032Z,8044.00
2019-05-06T10:19:36.705Z,7620.00
2019-05-06T10:20:12.752Z,7524.00
2019-05-06T10:21:12.545Z,7536.00
2019-05-06T10:23:43.923Z,11372.00
2019-05-06T10:24:47.932Z,12280.00
2019-05-06T10:25:44.063Z,11856.00
2019-05-06T10:28:38.110Z,12952.00
2019-05-06T10:29:15.677Z,11056.00
2019-05-06T10:30:22.613Z,10056.00
2019-05-06T10:31:16.177Z,9492.00
2019-05-06T10:32:16.177Z,9140.00
2019-05-06T10:33:16.177Z,8988.00
2019-05-06T10:34:16.179Z,8840.00
2019-05-06T10:35:16.678Z,8412.00
2019-05-06T10:36:42.705Z,8312.00
2019-05-06T10:37:19.257Z,7872.00
2019-05-06T10:38:16.677Z,7424.00
2019-05-06T10:41:00.084Z,6716.00
2019-05-06T10:43:22.710Z,6676.00
2019-05-06T10:44:43.719Z,6692.00
2019-05-06T10:45:22.717Z,6788.00
2019-05-06T10:46:23.232Z,7040.00
2019-05-06T10:47:27.222Z,7480.00
2019-05-06T10:48:44.217Z,7740.00
2019-05-06T10:49:24.200Z,7840.00
2019-05-06T10:52:08.913Z,8676.00
2019-05-06T10:52:58.419Z,8160.00
2019-05-06T10:53:54.918Z,8008.00
2019-05-06T10:54:56.874Z,8180.00
2019-05-06T10:57:26.739Z,8708.00
2019-05-06T10:58:32.522Z,8500.00
2019-05-06T10:59:26.747Z,8120.00
2019-05-06T11:00:47.320Z,7608.00
2019-05-06T11:01:48.248Z,6976.00
2019-05-06T11:02:52.681Z,6532.00
2019-05-06T11:03:33.060Z,6336.00
2019-05-06T11:04:27.250Z,6332.00
2019-05-06T11:05:48.804Z,6280.00
2019-05-06T11:06:27.747Z,6308.00
2019-05-06T11:07:31.332Z,6324.00
2019-05-06T11:08:52.748Z,6312.00
2019-05-06T11:09:30.182Z,6188.00
2019-05-06T11:10:49.249Z,6028.00
2019-05-06T11:11:37.016Z,5984.00
2019-05-06T11:12:28.257Z,6188.00
2019-05-06T11:13:28.246Z,6628.00
2019-05-06T11:14:33.076Z,7348.00
2019-05-06T11:15:28.746Z,8488.00
2019-05-06T11:16:28.747Z,9868.00
2019-05-06T11:17:49.747Z,11304.00
2019-05-06T11:18:33.138Z,12784.00
2019-05-06T11:19:53.747Z,14068.00
2019-05-06T11:22:03.378Z,17664.00
2019-05-06T11:23:02.131Z,17376.00
2019-05-06T11:24:23.140Z,15568.00
2019-05-06T11:25:12.271Z,14292.00
2019-05-06T11:26:23.680Z,15576.00
2019-05-06T11:27:28.879Z,16032.00
2019-05-06T11:28:22.124Z,16192.00
2019-05-06T11:30:36.869Z,16672.00
2019-05-06T11:31:33.343Z,16384.00
2019-05-06T11:32:33.117Z,16768.00
2019-05-06T11:33:33.376Z,13648.00
2019-05-06T11:34:33.375Z,14624.00
2019-05-06T11:35:33.378Z,12664.00
2019-05-06T11:36:37.658Z,12268.00
2019-05-06T11:37:46.256Z,13564.00
2019-05-06T11:38:33.877Z,11380.00
2019-05-06T11:39:54.881Z,12620.00
2019-05-06T11:40:33.876Z,9260.00
2019-05-06T11:41:37.877Z,8208.00
2019-05-06T11:42:55.386Z,7568.00
2019-05-06T11:43:34.381Z,6972.00
2019-05-06T11:44:34.373Z,6624.00
2019-05-06T11:45:55.876Z,6380.00
2019-05-06T11:46:34.877Z,6332.00
2019-05-06T11:47:58.876Z,6320.00
2019-05-06T11:48:34.878Z,6284.00
2019-05-06T11:49:35.391Z,6272.00
2019-05-06T11:50:35.375Z,6320.00
2019-05-06T11:51:35.380Z,6272.00
2019-05-06T11:52:39.380Z,6256.00
2019-05-06T11:53:35.876Z,6164.00
2019-05-06T11:54:35.876Z,6072.00
2019-05-06T11:55:56.875Z,6124.00
2019-05-06T11:56:47.950Z,6232.00
2019-05-06T11:59:31.807Z,6604.00
2019-05-06T12:00:12.633Z,6796.00
2019-05-06T12:01:13.296Z,6952.00
2019-05-06T12:02:13.305Z,7132.00
2019-05-06T12:03:35.770Z,7396.00
2019-05-06T12:04:25.283Z,7600.00
2019-05-06T12:05:11.269Z,7508.00
2019-05-06T12:06:33.012Z,7400.00
2019-05-06T12:07:15.470Z,7344.00
2019-05-06T12:08:36.270Z,7220.00
2019-05-06T12:09:33.408Z,7136.00
2019-05-06T12:10:12.979Z,7120.00
2019-05-06T12:12:44.025Z,7016.00
2019-05-06T12:13:48.949Z,6948.00
2019-05-06T12:14:44.015Z,6772.00
2019-05-06T12:17:36.754Z,6768.00
2019-05-06T12:18:15.763Z,6548.00
2019-05-06T12:19:19.263Z,6444.00
2019-05-06T12:20:42.542Z,6364.00
2019-05-06T12:21:19.310Z,6176.00
2019-05-06T12:22:37.271Z,6060.00
2019-05-06T12:23:16.262Z,5960.00
2019-05-06T12:24:43.762Z,5904.00
2019-05-06T12:25:37.759Z,5816.00
2019-05-06T12:26:16.769Z,5652.00
2019-05-06T12:27:16.761Z,5420.00
2019-05-06T12:29:52.755Z,4668.00
2019-05-06T12:32:22.554Z,4332.00
2019-05-06T12:33:42.729Z,4388.00
2019-05-06T12:35:55.087Z,4364.00
2019-05-06T12:36:52.723Z,4372.00
2019-05-06T12:37:53.060Z,4388.00
2019-05-06T12:38:52.483Z,4408.00
2019-05-06T12:39:54.523Z,4332.00
2019-05-06T12:43:58.291Z,3924.00
2019-05-06T12:45:03.436Z,3880.00
2019-05-06T12:46:22.802Z,3848.00
2019-05-06T12:48:30.011Z,4072.00
2019-05-06T12:49:32.390Z,4308.00
2019-05-06T12:50:30.023Z,4600.00
2019-05-06T12:51:34.521Z,4924.00
2019-05-06T12:52:33.455Z,5288.00
2019-05-06T12:53:32.635Z,5572.00
2019-05-06T12:54:33.282Z,5808.00
2019-05-06T12:55:52.105Z,5940.00
2019-05-06T12:56:34.518Z,5912.00
2019-05-06T12:57:53.001Z,5784.00
2019-05-06T12:58:52.557Z,5580.00
2019-05-06T12:59:53.021Z,5316.00
2019-05-06T13:00:31.522Z,5140.00
2019-05-06T13:01:35.524Z,4980.00
2019-05-06T13:02:32.847Z,4820.00
2019-05-06T13:03:53.018Z,4644.00
2019-05-06T13:04:59.714Z,4488.00
2019-05-06T13:05:32.094Z,4304.00
2019-05-06T13:06:33.444Z,4200.00
2019-05-06T13:07:35.525Z,4176.00
2019-05-06T13:08:49.746Z,4200.00
2019-05-06T13:09:33.158Z,4292.00
2019-05-06T13:10:33.553Z,4392.00
2019-05-06T13:11:33.025Z,4568.00
2019-05-06T13:12:37.991Z,4692.00
2019-05-06T13:13:33.278Z,4816.00
2019-05-06T13:14:33.274Z,4792.00
2019-05-06T13:15:54.519Z,4700.00
2019-05-06T13:18:08.404Z,4052.00
2019-05-06T13:19:04.247Z,3796.00
2019-05-06T13:20:04.894Z,3636.00
2019-05-06T13:21:26.394Z,3524.00
2019-05-06T13:22:26.390Z,3444.00
2019-05-06T13:23:09.528Z,3436.00
2019-05-06T13:24:29.631Z,3448.00
2019-05-06T13:25:26.911Z,3516.00
2019-05-06T13:26:26.893Z,3632.00
2019-05-06T13:27:05.910Z,3772.00
2019-05-06T13:28:16.832Z,3936.00
2019-05-06T13:29:34.811Z,4116.00
2019-05-06T13:31:37.649Z,4524.00
2019-05-06T13:32:39.087Z,4608.00
2019-05-06T13:33:37.720Z,4712.00
2019-05-06T13:36:13.219Z,4952.00
2019-05-06T13:37:14.026Z,5008.00
2019-05-06T13:38:12.548Z,5052.00
2019-05-06T13:40:56.467Z,5260.00
2019-05-06T13:41:43.622Z,5388.00
2019-05-06T13:42:44.293Z,5552.00
2019-05-06T13:43:46.787Z,5740.00
2019-05-06T13:44:44.820Z,5936.00
2019-05-06T13:45:48.285Z,6244.00
2019-05-06T13:46:44.783Z,6612.00
2019-05-06T13:47:47.285Z,7168.00
2019-05-06T13:48:45.284Z,7820.00
2019-05-06T13:49:45.289Z,10708.00
2019-05-06T13:50:49.284Z,12188.00
2019-05-06T13:53:17.028Z,12372.00
2019-05-06T13:54:17.048Z,11576.00
2019-05-06T13:55:17.051Z,11016.00
2019-05-06T13:56:42.570Z,9680.00
2019-05-06T13:57:17.530Z,8940.00